Bramwell, West Virginia
Current Conditions -  °F | °C
As of 2:15 AM on Sunday 26 Oct 2014 (Local Time) from KBLF Reporting Station
Overcast Overcast  
Wind Chill: 58°   Ceiling: 900
Heat Index: 58°   Visibility: 10mi
Dew Point: 52°   Wind: 12mph
Humidity: 81%   Direction: 290°WNW
Pressure: 29.94"   Gusts: 21mph
Location:  37.33°N, 81.31°W
Report Text: KBLF 260615Z AUTO 29010G18KT 10SM OVC009 14/11 A2994 RMK AO2 T01440111
Loading
Personal Weather Stations






























Interactive Weather Map
Tropical Storm Tracking
New forecast layout! Learn more

10-Day Weather Forecast

Advertisements
Track Severe Weather on mobile